Time;durP1;ratioP1;P1;durP2;ratioP2;P2;SDS_P1;SDS_P2;PMS_P1;PMS_P2;Temp;Humidity;BMP_temperature;BMP_pressure;BME280_temperature;BME280_humidity;BME280_pressure;Samples;Min_cycle;Max_cycle;Signal;HPM_P1;HPM_P2
2024/01/29 00:01:07;;;;;;;23.02;12.60;;;;;;;-3.99;100.00;99784.44;6112044;19;20001;-72
2024/01/29 00:03:07;;;;;;;19.45;11.70;;;;;;;-3.99;100.00;99779.03;6112978;19;20078;-72
2024/01/29 00:05:08;;;;;;;21.33;11.75;;;;;;;-4.00;100.00;99779.28;6112856;19;20434;-72
2024/01/29 00:07:08;;;;;;;19.90;10.73;;;;;;;-4.01;100.00;99780.34;6110408;19;19999;-72
2024/01/29 00:09:08;;;;;;;19.00;10.98;;;;;;;-4.00;100.00;99772.00;6111929;19;20037;-73
2024/01/29 00:11:08;;;;;;;16.27;10.40;;;;;;;-4.02;100.00;99771.44;6112762;19;20495;-72
2024/01/29 00:13:09;;;;;;;18.75;9.90;;;;;;;-4.00;100.00;99774.69;6111888;19;20015;-72
2024/01/29 00:15:09;;;;;;;16.85;10.15;;;;;;;-3.93;100.00;99768.28;6112754;19;20003;-72
2024/01/29 00:17:10;;;;;;;19.85;10.98;;;;;;;-3.93;100.00;99763.69;6110582;19;20014;-72
2024/01/29 00:19:10;;;;;;;18.85;9.85;;;;;;;-3.92;100.00;99768.03;6111867;19;20046;-72
2024/01/29 00:21:12;;;;;;;17.77;9.68;;;;;;;-3.96;100.00;99761.50;6111625;19;20003;-72
2024/01/29 00:23:14;;;;;;;16.52;9.55;;;;;;;-3.94;100.00;99769.34;6112300;19;20018;-72
2024/01/29 00:25:14;;;;;;;17.63;9.85;;;;;;;-3.95;100.00;99765.84;6111668;19;20011;-72
2024/01/29 00:27:14;;;;;;;16.13;8.77;;;;;;;-3.98;100.00;99759.03;6109124;19;20010;-72
2024/01/29 00:29:15;;;;;;;15.63;9.07;;;;;;;-3.96;100.00;99761.50;6110803;19;20507;-72
2024/01/29 00:31:16;;;;;;;14.80;9.30;;;;;;;-4.00;100.00;99755.78;6112104;19;20026;-72
2024/01/29 00:33:16;;;;;;;16.00;9.23;;;;;;;-4.01;100.00;99743.31;6110446;19;20014;-72
2024/01/29 00:35:17;;;;;;;13.48;8.02;;;;;;;-4.00;100.00;99744.94;6111405;19;20066;-72
2024/01/29 00:37:17;;;;;;;16.65;8.45;;;;;;;-3.98;100.00;99748.22;6110181;19;20091;-72
2024/01/29 00:39:17;;;;;;;15.38;8.40;;;;;;;-3.99;100.00;99760.09;6111924;19;20563;-72
2024/01/29 00:41:18;;;;;;;17.10;8.90;;;;;;;-3.98;100.00;99740.09;6111088;19;20394;-73
2024/01/29 00:43:18;;;;;;;16.98;9.32;;;;;;;-3.98;100.00;99742.81;6111740;19;20007;-72
2024/01/29 00:45:19;;;;;;;16.15;9.43;;;;;;;-4.00;100.00;99752.25;6110655;19;20463;-72
2024/01/29 00:47:20;;;;;;;14.35;8.77;;;;;;;-4.04;100.00;99740.31;6109779;19;20007;-72
2024/01/29 00:49:21;;;;;;;16.60;9.30;;;;;;;-4.04;100.00;99746.53;6111096;19;20009;-73
2024/01/29 00:51:21;;;;;;;15.77;8.57;;;;;;;-4.06;100.00;99739.72;6111523;19;20482;-72
2024/01/29 00:53:22;;;;;;;19.52;10.00;;;;;;;-4.08;100.00;99753.50;6110884;19;20006;-72
2024/01/29 00:55:22;;;;;;;16.30;9.30;;;;;;;-4.08;100.00;99753.50;6111255;19;20455;-72
2024/01/29 00:57:22;;;;;;;13.07;8.73;;;;;;;-4.08;100.00;99747.28;6109138;19;20030;-72
2024/01/29 00:59:23;;;;;;;17.85;9.68;;;;;;;-4.07;100.00;99748.91;6110144;19;20470;-72
2024/01/29 01:01:23;;;;;;;19.42;10.13;;;;;;;-4.11;100.00;99736.97;6111034;19;20005;-72
2024/01/29 01:03:23;;;;;;;18.08;9.52;;;;;;;-4.16;100.00;99737.72;6111166;19;20081;-73
2024/01/29 01:05:24;;;;;;;16.15;9.10;;;;;;;-4.18;100.00;99731.75;6112335;19;20082;-73
2024/01/29 01:07:24;;;;;;;18.45;9.45;;;;;;;-4.18;100.00;99731.75;6109265;19;20091;-72
2024/01/29 01:09:24;;;;;;;16.00;8.48;;;;;;;-4.18;100.00;99715.53;6109994;19;20048;-72
2024/01/29 01:11:25;;;;;;;16.20;9.02;;;;;;;-4.22;100.00;99727.09;6111307;19;20007;-72
2024/01/29 01:13:25;;;;;;;15.35;9.93;;;;;;;-4.18;100.00;99725.53;6109644;19;19998;-72
2024/01/29 01:15:25;;;;;;;19.30;9.40;;;;;;;-4.25;100.00;99726.53;6109145;19;20103;-72
2024/01/29 01:17:26;;;;;;;19.05;9.43;;;;;;;-4.24;100.00;99722.75;6110031;19;20011;-73
2024/01/29 01:19:26;;;;;;;17.80;9.30;;;;;;;-4.17;100.00;99727.16;6110139;19;20446;-72
2024/01/29 01:21:26;;;;;;;16.15;9.48;;;;;;;-4.21;100.00;99726.88;6110734;19;20080;-72
2024/01/29 01:23:27;;;;;;;14.85;8.60;;;;;;;-4.17;100.00;99724.47;6109954;19;20006;-72
2024/01/29 01:25:27;;;;;;;14.57;8.48;;;;;;;-4.17;100.00;99725.28;6110777;19;20007;-72
2024/01/29 01:27:27;;;;;;;17.83;9.65;;;;;;;-4.18;100.00;99718.25;6109231;19;20015;-72
2024/01/29 01:29:28;;;;;;;15.30;8.88;;;;;;;-4.20;100.00;99724.97;6109571;19;20332;-72
2024/01/29 01:31:28;;;;;;;16.60;9.23;;;;;;;-4.22;100.00;99708.97;6111576;19;20038;-73
2024/01/29 01:33:28;;;;;;;19.73;10.52;;;;;;;-4.24;100.00;99717.34;6110256;19;20396;-73
2024/01/29 01:35:29;;;;;;;16.80;9.75;;;;;;;-4.16;100.00;99712.59;6109468;19;19998;-73
2024/01/29 01:37:29;;;;;;;17.67;9.68;;;;;;;-4.14;100.00;99700.44;6110983;19;20015;-72
2024/01/29 01:39:29;;;;;;;16.92;10.35;;;;;;;-4.16;100.00;99709.88;6109782;19;20031;-72
2024/01/29 01:41:30;;;;;;;14.18;8.63;;;;;;;-4.22;100.00;99698.19;6108751;19;20002;-73
2024/01/29 01:43:30;;;;;;;17.23;9.60;;;;;;;-4.29;100.00;99711.91;6109058;19;20372;-73
2024/01/29 01:45:30;;;;;;;18.55;9.85;;;;;;;-4.32;100.00;99711.56;6109169;19;20006;-73
2024/01/29 01:47:31;;;;;;;15.65;9.45;;;;;;;-4.30;100.00;99707.56;6100884;19;20010;-73
2024/01/29 01:49:31;;;;;;;19.23;10.55;;;;;;;-4.32;100.00;99709.69;6109324;19;20348;-73
2024/01/29 01:51:32;;;;;;;15.65;9.35;;;;;;;-4.32;100.00;99692.66;6108468;19;19994;-72
2024/01/29 01:53:36;;;;;;;21.05;10.38;;;;;;;-4.36;100.00;99692.34;6108959;19;19999;-73
2024/01/29 01:55:37;;;;;;;18.00;9.73;;;;;;;-4.39;100.00;99695.53;6107746;19;20006;-73
2024/01/29 01:57:38;;;;;;;17.85;10.40;;;;;;;-4.41;100.00;99700.38;6109290;19;20042;-72
2024/01/29 01:59:39;;;;;;;15.68;9.60;;;;;;;-4.39;100.00;99694.72;6107072;19;20006;-72
2024/01/29 02:01:40;;;;;;;20.20;9.40;;;;;;;-4.40;100.00;99709.31;6108108;19;20003;-72
2024/01/29 02:03:42;;;;;;;16.38;9.95;;;;;;;-4.41;100.00;99697.69;6108948;19;20347;-73
2024/01/29 02:05:43;;;;;;;16.58;9.98;;;;;;;-4.38;100.00;99694.50;6108582;19;20534;-73
2024/01/29 02:07:43;;;;;;;17.85;9.57;;;;;;;-4.39;100.00;99682.03;6109373;19;20013;-72
2024/01/29 02:09:43;;;;;;;14.25;9.27;;;;;;;-4.40;100.00;99688.50;6108805;19;20352;-73
2024/01/29 02:11:44;;;;;;;15.60;9.20;;;;;;;-4.42;100.00;99687.94;6106091;19;20030;-72
2024/01/29 02:13:45;;;;;;;16.40;9.38;;;;;;;-4.40;100.00;99690.38;6109232;19;20021;-73
2024/01/29 02:15:45;;;;;;;18.75;8.65;;;;;;;-4.39;100.00;99679.31;6107171;19;20483;-73
2024/01/29 02:17:45;;;;;;;16.08;7.93;;;;;;;-4.37;100.00;99681.81;6109565;19;20240;-72
2024/01/29 02:19:46;;;;;;;15.68;8.30;;;;;;;-4.43;100.00;99678.22;6108411;19;20066;-72
2024/01/29 02:21:46;;;;;;;16.05;8.25;;;;;;;-4.44;100.00;99676.56;6107964;19;20075;-73
2024/01/29 02:23:46;;;;;;;12.70;7.30;;;;;;;-4.49;100.00;99670.28;6106752;19;20006;-73
2024/01/29 02:25:47;;;;;;;12.20;7.55;;;;;;;-4.52;100.00;99688.63;6108006;19;20536;-72
2024/01/29 02:27:47;;;;;;;18.08;7.70;;;;;;;-4.56;100.00;99676.69;6108179;19;20006;-73
2024/01/29 02:29:47;;;;;;;13.85;7.70;;;;;;;-4.57;100.00;99680.44;6109154;19;20006;-73
2024/01/29 02:31:48;;;;;;;15.40;7.90;;;;;;;-4.59;100.00;99679.88;6109392;19;20002;-73
2024/01/29 02:33:48;;;;;;;13.57;7.90;;;;;;;-4.61;100.00;99676.63;6108862;19;20349;-72
2024/01/29 02:35:48;;;;;;;15.40;8.18;;;;;;;-4.61;100.00;99675.81;6108201;19;20034;-73
2024/01/29 02:37:49;;;;;;;17.73;8.40;;;;;;;-4.66;100.00;99673.03;6108330;19;20486;-73
2024/01/29 02:39:50;;;;;;;14.05;7.15;;;;;;;-4.68;100.00;99675.16;6110052;19;20014;-73
2024/01/29 02:41:50;;;;;;;15.93;8.43;;;;;;;-4.71;100.00;99670.28;6107463;19;20007;-73
2024/01/29 02:43:51;;;;;;;16.67;8.23;;;;;;;-4.72;100.00;99677.53;6108509;19;20027;-73
2024/01/29 02:45:51;;;;;;;15.25;8.95;;;;;;;-4.73;100.00;99672.38;6106936;19;20002;-73
2024/01/29 02:47:52;;;;;;;17.52;9.82;;;;;;;-4.77;100.00;99668.56;6103838;19;20086;-73
2024/01/29 02:49:52;;;;;;;16.58;9.40;;;;;;;-4.76;100.00;99673.72;6100311;19;20654;-73
2024/01/29 02:51:52;;;;;;;14.38;9.05;;;;;;;-4.78;100.00;99665.06;6101603;19;20006;-73
2024/01/29 02:53:53;;;;;;;15.85;9.02;;;;;;;-4.78;100.00;99673.16;6100631;19;20027;-73
2024/01/29 02:55:53;;;;;;;13.43;8.48;;;;;;;-4.82;100.00;99662.00;6099947;19;20010;-73
2024/01/29 02:57:53;;;;;;;18.75;9.20;;;;;;;-4.82;100.00;99655.78;6099451;19;20034;-73
2024/01/29 02:59:54;;;;;;;17.05;8.48;;;;;;;-4.81;100.00;99657.44;6101800;19;20031;-73
2024/01/29 03:01:56;;;;;;;13.50;7.50;;;;;;;-4.81;100.00;99662.81;6101602;19;20007;-73
2024/01/29 03:03:56;;;;;;;;;;;;;;;-4.82;100.00;99670.13;6102175;19;20448;-73
2024/01/29 03:05:57;;;;;;;15.52;7.35;;;;;;;-4.79;100.00;99663.41;6100596;19;19910;-73
2024/01/29 03:07:57;;;;;;;17.90;6.85;;;;;;;-4.80;100.00;99672.56;6101702;19;20003;-73
2024/01/29 03:09:57;;;;;;;12.30;6.68;;;;;;;-4.79;100.00;99666.13;6101248;19;20236;-73
2024/01/29 03:11:58;;;;;;;11.52;6.60;;;;;;;-4.80;100.00;99659.06;6101173;19;20534;-73
2024/01/29 03:13:58;;;;;;;10.80;6.57;;;;;;;-4.82;100.00;99655.78;6100959;19;20385;-73
2024/01/29 03:15:58;;;;;;;15.27;7.22;;;;;;;-4.85;100.00;99657.13;6099904;19;20007;-73
2024/01/29 03:17:58;;;;;;;11.55;6.75;;;;;;;-4.86;100.00;99649.28;6100664;19;20026;-73
2024/01/29 03:19:59;;;;;;;10.15;5.90;;;;;;;-4.86;100.00;99652.78;6101539;19;20010;-73
2024/01/29 03:21:59;;;;;;;10.50;5.68;;;;;;;-4.90;100.00;99654.34;6100481;19;20006;-73
2024/01/29 03:24:00;;;;;;;11.40;6.55;;;;;;;-4.90;100.00;99653.53;6100998;19;20006;-73
2024/01/29 03:26:00;;;;;;;11.95;6.75;;;;;;;-4.90;100.00;99648.13;6099756;19;20276;-73
2024/01/29 03:28:00;;;;;;;10.85;5.85;;;;;;;-4.91;100.00;99652.72;6100144;19;20432;-73
2024/01/29 03:30:00;;;;;;;13.32;7.13;;;;;;;-4.92;100.00;99659.19;6100452;19;20019;-73
2024/01/29 03:32:01;;;;;;;11.63;6.53;;;;;;;-4.93;100.00;99646.75;6100843;19;20003;-73
2024/01/29 03:34:01;;;;;;;12.98;6.70;;;;;;;-4.93;100.00;99656.72;6098480;19;20022;-73
2024/01/29 03:36:08;;;;;;;13.40;6.68;;;;;;;-4.91;100.00;99660.00;6098953;19;20002;-73
2024/01/29 03:38:08;;;;;;;10.77;6.35;;;;;;;-4.87;100.00;99656.56;6100700;19;20507;-73
2024/01/29 03:40:08;;;;;;;10.30;5.97;;;;;;;-4.90;100.00;99653.53;6098995;19;20010;-73
2024/01/29 03:42:09;;;;;;;8.77;5.45;;;;;;;-4.89;100.00;99647.88;6100848;19;20022;-73
2024/01/29 03:44:09;;;;;;;8.55;5.88;;;;;;;-4.90;100.00;99648.13;6099781;19;20331;-73
2024/01/29 03:46:09;;;;;;;9.52;5.82;;;;;;;-4.92;100.00;99640.28;6099107;19;20070;-73
2024/01/29 03:48:10;;;;;;;10.10;5.63;;;;;;;-4.92;100.00;99639.47;6102597;19;20027;-73
2024/01/29 03:50:10;;;;;;;10.13;5.75;;;;;;;-4.85;100.00;99640.09;6107202;19;20010;-73
2024/01/29 03:52:11;;;;;;;10.32;6.18;;;;;;;-4.88;100.00;99637.88;6107487;19;20384;-73
2024/01/29 03:54:11;;;;;;;10.07;5.93;;;;;;;-4.92;100.00;99634.88;6107835;19;20307;-73
2024/01/29 03:56:11;;;;;;;10.48;5.80;;;;;;;-4.90;100.00;99638.13;6104582;19;19999;-73
2024/01/29 03:58:12;;;;;;;10.13;5.95;;;;;;;-4.87;100.00;99642.25;6106669;19;19998;-73
2024/01/29 04:00:12;;;;;;;10.27;5.63;;;;;;;-4.92;100.00;99642.97;6107267;19;20013;-73
2024/01/29 04:02:13;;;;;;;8.13;5.45;;;;;;;-4.91;100.00;99641.09;6107512;19;20103;-73
2024/01/29 04:04:13;;;;;;;10.10;6.03;;;;;;;-4.89;100.00;99647.06;6106837;19;20450;-73
2024/01/29 04:06:14;;;;;;;7.95;5.13;;;;;;;-4.89;100.00;99631.66;6105130;19;20003;-73
2024/01/29 04:08:14;;;;;;;8.50;5.57;;;;;;;-4.90;100.00;99638.13;6106569;19;20337;-73
2024/01/29 04:10:15;;;;;;;8.18;4.97;;;;;;;-4.95;100.00;99651.59;6106773;19;19999;-73
2024/01/29 04:12:17;;;;;;;7.32;4.85;;;;;;;-4.97;100.00;99648.28;6106366;19;20034;-73
2024/01/29 04:14:17;;;;;;;7.82;4.68;;;;;;;-4.99;100.00;99646.91;6106277;19;20031;-73
2024/01/29 04:16:18;;;;;;;8.15;4.70;;;;;;;-5.00;100.00;99643.41;6104521;19;19999;-73
2024/01/29 04:18:18;;;;;;;8.23;5.20;;;;;;;-5.04;100.00;99642.28;6106047;19;19991;-73
2024/01/29 04:20:18;;;;;;;8.57;4.93;;;;;;;-5.07;100.00;99639.25;6106844;19;20541;-73
2024/01/29 04:22:19;;;;;;;9.25;5.40;;;;;;;-5.11;100.00;99637.03;6107097;19;19999;-73
2024/01/29 04:24:19;;;;;;;10.45;5.20;;;;;;;-5.04;100.00;99636.06;6105193;19;20490;-73
2024/01/29 04:26:19;;;;;;;8.68;5.07;;;;;;;-5.02;100.00;99639.31;6105795;19;20455;-73
2024/01/29 04:28:20;;;;;;;9.95;6.00;;;;;;;-5.09;100.00;99634.91;6105709;19;20320;-73
2024/01/29 04:30:20;;;;;;;11.27;4.97;;;;;;;-5.05;100.00;99635.22;6107181;19;20519;-73
2024/01/29 04:32:20;;;;;;;8.98;5.25;;;;;;;-4.97;100.00;99629.41;6105815;19;20034;-73
2024/01/29 04:34:21;;;;;;;8.48;4.95;;;;;;;-4.89;100.00;99636.25;6107383;19;20041;-73
2024/01/29 04:36:21;;;;;;;8.65;5.50;;;;;;;-4.91;100.00;99630.28;6108658;19;20026;-73
2024/01/29 04:38:21;;;;;;;8.93;4.40;;;;;;;-4.97;100.00;99628.59;6111064;19;20394;-73
2024/01/29 04:40:22;;;;;;;9.05;5.18;;;;;;;-4.94;100.00;99630.81;6110708;19;19998;-73
2024/01/29 04:42:23;;;;;;;7.65;4.57;;;;;;;-4.93;100.00;99629.75;6112220;19;20086;-73
2024/01/29 04:44:24;;;;;;;6.90;4.35;;;;;;;-4.99;100.00;99630.72;6111119;19;20010;-73
2024/01/29 04:46:25;;;;;;;7.37;4.20;;;;;;;-5.01;100.00;99635.56;6109601;19;20594;-73
2024/01/29 04:48:25;;;;;;;8.98;5.05;;;;;;;-5.00;100.00;99638.00;6110795;19;20271;-73
2024/01/29 04:50:26;;;;;;;9.93;6.07;;;;;;;-5.04;100.00;99641.47;6110838;19;20044;-73
2024/01/29 04:52:26;;;;;;;14.68;7.18;;;;;;;-5.10;100.00;99633.28;6109607;19;20091;-73
2024/01/29 04:54:26;;;;;;;17.95;7.82;;;;;;;-5.10;100.00;99633.28;6110960;19;20285;-73
2024/01/29 04:56:27;;;;;;;11.82;6.10;;;;;;;-5.14;100.00;99634.00;6110023;19;20006;-73
2024/01/29 04:58:27;;;;;;;12.65;6.07;;;;;;;-5.17;100.00;99632.63;6109188;19;20003;-73
2024/01/29 05:00:27;;;;;;;11.07;5.75;;;;;;;-5.20;100.00;99632.31;6110913;19;20539;-73
2024/01/29 05:02:27;;;;;;;11.95;6.72;;;;;;;-5.19;100.00;99637.47;6110753;19;20036;-73
2024/01/29 05:04:28;;;;;;;10.70;6.53;;;;;;;-5.20;100.00;99635.84;6110635;19;20018;-73
2024/01/29 05:06:28;;;;;;;11.75;6.65;;;;;;;-5.20;100.00;99643.94;6109382;19;20034;-73
2024/01/29 05:08:29;;;;;;;8.00;4.90;;;;;;;-5.16;100.00;99639.66;6110535;19;20007;-73
2024/01/29 05:10:30;;;;;;;9.23;4.05;;;;;;;-5.07;100.00;99637.34;6110941;19;20333;-73
2024/01/29 05:12:31;;;;;;;7.30;5.00;;;;;;;-5.02;100.00;99645.53;6110967;19;20039;-73
2024/01/29 05:14:31;;;;;;;11.98;6.93;;;;;;;-5.03;100.00;99641.22;6110128;19;20022;-73
2024/01/29 05:16:34;;;;;;;9.70;5.43;;;;;;;-4.98;100.00;99645.84;6109807;19;20007;-73
2024/01/29 05:18:34;;;;;;;8.23;4.80;;;;;;;-4.89;100.00;99652.44;6110141;19;20006;-73
2024/01/29 05:20:34;;;;;;;9.15;4.78;;;;;;;-4.84;100.00;99656.06;6110897;19;20459;-73
2024/01/29 05:22:34;;;;;;;7.15;4.45;;;;;;;-4.69;100.00;99668.94;6110732;19;20074;-73
2024/01/29 05:24:35;;;;;;;7.10;4.35;;;;;;;-4.40;100.00;99666.06;6107827;19;20061;-73
2024/01/29 05:26:35;;;;;;;10.38;4.75;;;;;;;-4.21;100.00;99662.00;6108924;19;20066;-72
2024/01/29 05:28:35;;;;;;;12.45;5.30;;;;;;;-4.16;100.00;99664.75;6108947;19;20026;-72
2024/01/29 05:30:36;;;;;;;9.40;4.72;;;;;;;-4.19;100.00;99670.66;6111068;19;20031;-73
2024/01/29 05:32:36;;;;;;;12.38;5.20;;;;;;;-4.24;100.00;99676.00;6110137;19;20033;-73
2024/01/29 05:34:36;;;;;;;7.68;4.38;;;;;;;-4.28;100.00;99669.47;6110082;19;20026;-73
2024/01/29 05:36:37;;;;;;;7.25;3.67;;;;;;;-4.26;100.00;99678.97;6109615;19;20007;-73
2024/01/29 05:38:37;;;;;;;5.95;4.00;;;;;;;-4.30;100.00;99685.94;6109066;19;20014;-73
2024/01/29 05:40:37;;;;;;;8.48;5.22;;;;;;;-4.28;100.00;99683.81;6109971;19;20421;-73
2024/01/29 05:42:38;;;;;;;9.68;5.40;;;;;;;-4.28;100.00;99688.41;6110039;19;20394;-73
2024/01/29 05:44:38;;;;;;;10.48;5.78;;;;;;;-4.27;100.00;99692.72;6110184;19;20010;-72
2024/01/29 05:46:39;;;;;;;10.75;5.40;;;;;;;-4.31;100.00;99689.69;6107709;19;20031;-73
2024/01/29 05:48:39;;;;;;;10.23;5.28;;;;;;;-4.33;100.00;99681.03;6109816;19;20788;-72
2024/01/29 05:50:39;;;;;;;6.75;4.80;;;;;;;-4.36;100.00;99678.03;6108302;19;20007;-73
2024/01/29 05:52:40;;;;;;;12.32;5.75;;;;;;;-4.37;100.00;99676.41;6111034;19;20014;-73
2024/01/29 05:54:40;;;;;;;8.93;5.60;;;;;;;-4.37;100.00;99681.81;6110545;19;20376;-73
2024/01/29 05:56:42;;;;;;;11.38;6.05;;;;;;;-4.45;100.00;99672.25;6109508;19;20033;-73
2024/01/29 05:58:44;;;;;;;8.70;5.43;;;;;;;-4.50;100.00;99687.56;6110194;19;20010;-73
2024/01/29 06:00:45;;;;;;;7.40;4.40;;;;;;;-4.49;100.00;99683.78;6110610;19;20007;-73
2024/01/29 06:02:47;;;;;;;11.50;4.18;;;;;;;-4.47;100.00;99689.75;6110663;19;20086;-73
2024/01/29 06:04:48;;;;;;;;;;;;;;;-4.49;100.00;99687.31;6109209;19;20015;-73
2024/01/29 06:06:48;;;;;;;8.65;4.82;;;;;;;-4.48;100.00;99682.72;6107188;19;19914;-73
2024/01/29 06:08:48;;;;;;;6.85;4.40;;;;;;;-4.47;100.00;99692.44;6110393;19;20011;-73
2024/01/29 06:10:48;;;;;;;7.22;4.50;;;;;;;-4.48;100.00;99693.53;6109306;19;20015;-73
2024/01/29 06:12:49;;;;;;;8.07;5.03;;;;;;;-4.50;100.00;99698.38;6109687;19;20007;-73
2024/01/29 06:14:49;;;;;;;8.85;4.75;;;;;;;-4.55;100.00;99689.13;6107776;19;20006;-73
2024/01/29 06:16:49;;;;;;;10.38;5.45;;;;;;;-4.60;100.00;99682.84;6106142;19;20407;-73
2024/01/29 06:18:50;;;;;;;8.82;4.85;;;;;;;-4.59;100.00;99698.78;6105229;19;20029;-73
2024/01/29 06:20:50;;;;;;;11.00;5.50;;;;;;;-4.59;100.00;99696.09;6106846;19;20034;-73
2024/01/29 06:22:51;;;;;;;11.10;6.63;;;;;;;-4.59;100.00;99689.88;6108383;19;20010;-73
2024/01/29 06:24:51;;;;;;;9.85;5.80;;;;;;;-4.63;100.00;99688.75;6107033;19;20033;-73
2024/01/29 06:26:51;;;;;;;11.45;6.90;;;;;;;-4.68;100.00;99681.38;6107875;19;20021;-73
2024/01/29 06:28:52;;;;;;;12.00;7.03;;;;;;;-4.66;100.00;99675.72;6108946;19;20470;-73
2024/01/29 06:30:52;;;;;;;12.10;6.32;;;;;;;-4.64;100.00;99681.69;6108913;19;20018;-73
2024/01/29 06:32:53;;;;;;;14.07;6.75;;;;;;;-4.62;100.00;99671.47;6106438;19;20030;-72
2024/01/29 06:34:56;;;;;;;13.60;8.65;;;;;;;-4.60;100.00;99678.25;6105213;19;21028;-73
2024/01/29 06:36:57;;;;;;;14.75;7.45;;;;;;;-4.56;100.00;99690.19;6103881;19;20006;-73
2024/01/29 06:39:00;;;;;;;16.73;9.50;;;;;;;-4.55;100.00;99686.44;6108625;19;20034;-73
2024/01/29 06:41:00;;;;;;;13.82;8.88;;;;;;;-4.51;100.00;99689.44;6108102;19;20006;-73
2024/01/29 06:43:01;;;;;;;15.30;8.52;;;;;;;-4.51;100.00;99694.84;6108974;19;20364;-73
2024/01/29 06:45:01;;;;;;;18.33;9.80;;;;;;;-4.52;100.00;99682.41;6109180;19;20003;-73
2024/01/29 06:47:01;;;;;;;24.05;13.57;;;;;;;-4.60;100.00;99685.53;6100864;19;20006;-73
2024/01/29 06:49:04;;;;;;;34.63;17.08;;;;;;;-4.66;100.00;99684.66;6107676;19;20029;-73
2024/01/29 06:51:04;;;;;;;26.83;13.85;;;;;;;-4.69;100.00;99679.75;6109140;19;20010;-73
2024/01/29 06:53:05;;;;;;;33.30;16.80;;;;;;;-4.70;100.00;99683.53;6109004;19;20011;-73
2024/01/29 06:55:05;;;;;;;31.27;16.30;;;;;;;-4.71;100.00;99684.59;6109265;19;20007;-73
2024/01/29 06:57:06;;;;;;;26.15;14.52;;;;;;;-4.70;100.00;99690.81;6106135;19;20406;-73
2024/01/29 06:59:06;;;;;;;26.33;14.55;;;;;;;-4.72;100.00;99684.81;6108621;19;20255;-73
2024/01/29 07:01:06;;;;;;;24.00;13.27;;;;;;;-4.72;100.00;99684.81;6108859;19;20015;-73
2024/01/29 07:03:07;;;;;;;12.27;7.50;;;;;;;-4.70;100.00;99691.63;6108557;19;20078;-73
2024/01/29 07:05:08;;;;;;;11.40;7.82;;;;;;;-4.70;100.00;99682.72;6106633;19;20027;-73
2024/01/29 07:07:08;;;;;;;14.73;7.97;;;;;;;-4.67;100.00;99693.00;6107359;19;20010;-73
2024/01/29 07:09:08;;;;;;;13.10;7.57;;;;;;;-4.69;100.00;99687.84;6108089;19;20471;-73
2024/01/29 07:11:09;;;;;;;15.68;8.73;;;;;;;-4.61;100.00;99681.22;6108290;19;20514;-73
2024/01/29 07:13:09;;;;;;;14.52;8.40;;;;;;;-4.60;100.00;99682.84;6109188;19;20459;-73
2024/01/29 07:15:10;;;;;;;19.55;10.65;;;;;;;-4.61;100.00;99683.91;6108128;19;20007;-73
2024/01/29 07:17:10;;;;;;;23.25;13.38;;;;;;;-4.59;100.00;99688.00;6106888;19;20010;-73
2024/01/29 07:19:11;;;;;;;20.40;10.98;;;;;;;-4.58;100.00;99686.91;6108531;19;20011;-73
2024/01/29 07:21:11;;;;;;;23.13;11.27;;;;;;;-4.56;100.00;99694.75;6107891;19;20013;-73
2024/01/29 07:23:12;;;;;;;23.38;12.13;;;;;;;-4.58;100.00;99686.09;6107815;19;20089;-73
2024/01/29 07:25:12;;;;;;;22.13;11.88;;;;;;;-4.52;100.00;99688.63;6108072;19;20006;-73
2024/01/29 07:27:13;;;;;;;15.98;10.30;;;;;;;-4.44;100.00;99681.97;6106296;19;20010;-73
2024/01/29 07:29:13;;;;;;;25.48;11.40;;;;;;;-4.42;100.00;99679.03;6107845;19;20289;-73
2024/01/29 07:31:13;;;;;;;20.85;9.82;;;;;;;-4.42;100.00;99676.31;6107441;19;20026;-73
2024/01/29 07:33:13;;;;;;;32.83;14.27;;;;;;;-4.39;100.00;99676.63;6107550;19;20459;-73
2024/01/29 07:35:14;;;;;;;31.42;12.88;;;;;;;-4.37;100.00;99671.81;6108063;19;20010;-72
2024/01/29 07:37:14;;;;;;;32.65;14.07;;;;;;;-4.34;100.00;99679.41;6106982;19;20014;-73
2024/01/29 07:39:15;;;;;;;24.83;12.20;;;;;;;-4.34;100.00;99681.28;6107850;19;20010;-73
2024/01/29 07:41:15;;;;;;;20.02;11.27;;;;;;;-4.33;100.00;99689.13;6106797;19;20382;-73
2024/01/29 07:43:16;;;;;;;17.23;10.00;;;;;;;-4.29;100.00;99684.06;6107201;19;20010;-73
2024/01/29 07:45:16;;;;;;;21.38;10.95;;;;;;;-4.25;100.00;99686.00;6107948;19;20570;-73
2024/01/29 07:47:17;;;;;;;17.08;8.18;;;;;;;-4.19;100.00;99686.88;6103731;19;20007;-73
2024/01/29 07:49:17;;;;;;;13.38;8.40;;;;;;;-4.16;100.00;99696.38;6100110;19;20017;-73
2024/01/29 07:51:18;;;;;;;18.67;8.90;;;;;;;-4.14;100.00;99688.81;6099815;19;20007;-73
2024/01/29 07:53:18;;;;;;;16.42;9.10;;;;;;;-4.13;100.00;99685.88;6100503;19;20011;-73
2024/01/29 07:55:19;;;;;;;13.73;8.93;;;;;;;-4.07;100.00;99694.84;6099978;19;20003;-72
2024/01/29 07:57:20;;;;;;;18.15;9.13;;;;;;;-4.04;100.00;99687.06;6098170;19;20086;-73
2024/01/29 07:59:20;;;;;;;12.40;8.10;;;;;;;-4.00;100.00;99677.38;6099939;19;20028;-73
2024/01/29 08:01:21;;;;;;;13.30;6.47;;;;;;;-3.91;100.00;99682.31;6099166;19;20061;-73
2024/01/29 08:03:21;;;;;;;13.40;6.53;;;;;;;-3.82;100.00;99684.31;6099318;19;20011;-72
2024/01/29 08:05:21;;;;;;;8.25;5.50;;;;;;;-3.77;100.00;99684.38;6100172;19;20088;-73
2024/01/29 08:07:22;;;;;;;13.57;7.40;;;;;;;-3.75;100.00;99679.53;6098468;19;20009;-73
2024/01/29 08:09:22;;;;;;;12.25;6.40;;;;;;;-3.70;100.00;99685.00;6099793;19;20007;-72
2024/01/29 08:11:22;;;;;;;9.52;5.13;;;;;;;-3.66;100.00;99679.88;6105723;19;20355;-73
2024/01/29 08:13:23;;;;;;;11.43;4.30;;;;;;;-3.61;100.00;99682.66;6105970;19;20016;-73
2024/01/29 08:15:23;;;;;;;7.80;4.05;;;;;;;-3.51;100.00;99688.16;6104838;19;20499;-73
2024/01/29 08:17:23;;;;;;;8.70;4.82;;;;;;;-3.46;100.00;99680.09;6104368;19;20354;-73
2024/01/29 08:19:24;;;;;;;8.07;4.40;;;;;;;-3.40;100.00;99689.03;6103827;19;20103;-73
2024/01/29 08:21:24;;;;;;;8.88;5.22;;;;;;;-3.38;100.00;99686.09;6104704;19;20011;-73
2024/01/29 08:23:26;;;;;;;10.18;5.93;;;;;;;-3.38;100.00;99695.03;6105369;19;20011;-72
2024/01/29 08:25:26;;;;;;;11.05;5.82;;;;;;;-3.35;100.00;99682.88;6105738;19;20799;-73
2024/01/29 08:27:29;;;;;;;11.05;6.03;;;;;;;-3.28;100.00;99681.59;6103533;19;20011;-73
2024/01/29 08:29:29;;;;;;;11.55;5.90;;;;;;;-3.26;100.00;99671.31;6104048;19;20389;-73
2024/01/29 08:31:30;;;;;;;9.68;5.53;;;;;;;-3.22;100.00;99677.84;6104838;19;20014;-72
2024/01/29 08:33:31;;;;;;;11.32;5.35;;;;;;;-3.19;100.00;99680.03;6104629;19;20003;-73
2024/01/29 08:35:31;;;;;;;9.63;5.57;;;;;;;-3.12;100.00;99675.22;6104524;19;20562;-72
2024/01/29 08:37:31;;;;;;;8.77;4.80;;;;;;;-3.05;100.00;99679.63;6103880;19;20025;-73
2024/01/29 08:39:32;;;;;;;8.35;5.53;;;;;;;-3.02;100.00;99682.59;6104489;19;20002;-72
2024/01/29 08:41:32;;;;;;;11.93;6.30;;;;;;;-2.95;100.00;99676.97;6104577;19;20006;-73
2024/01/29 08:43:33;;;;;;;11.68;7.43;;;;;;;-2.77;100.00;99681.16;6104473;19;20341;-73
2024/01/29 08:45:34;;;;;;;12.90;7.82;;;;;;;-2.66;100.00;99678.22;6102589;19;20003;-73
2024/01/29 08:47:35;;;;;;;13.80;6.70;;;;;;;-2.58;100.00;99680.44;6105886;19;20037;-73
2024/01/29 08:49:35;;;;;;;15.70;8.15;;;;;;;-2.47;100.00;99680.53;6108958;19;20003;-72
2024/01/29 08:51:36;;;;;;;17.33;9.15;;;;;;;-2.40;100.00;99679.19;6110590;19;20350;-73
2024/01/29 08:53:36;;;;;;;14.73;8.07;;;;;;;-2.30;100.00;99681.13;6112312;19;20348;-73
2024/01/29 08:55:37;;;;;;;14.55;9.80;;;;;;;-2.20;100.00;99683.88;6110184;19;20005;-72
2024/01/29 08:57:37;;;;;;;12.85;7.75;;;;;;;-2.04;100.00;99691.00;6110740;19;20003;-72
2024/01/29 08:59:38;;;;;;;49.67;19.83;;;;;;;-1.66;100.00;99686.22;6110662;19;20005;-72
2024/01/29 09:01:38;;;;;;;19.88;10.23;;;;;;;-1.56;100.00;99688.16;6108729;19;20014;-72
2024/01/29 09:03:39;;;;;;;31.17;12.18;;;;;;;-1.24;100.00;99686.03;6111453;19;20459;-72
2024/01/29 09:05:39;;;;;;;13.38;6.28;;;;;;;-1.03;100.00;99688.72;6110417;19;20020;-72
2024/01/29 09:07:40;;;;;;;12.30;7.13;;;;;;;-0.73;100.00;99685.16;6110845;19;20030;-72
2024/01/29 09:09:41;;;;;;;8.98;6.22;;;;;;;-0.55;100.00;99694.66;6110770;19;20459;-72
2024/01/29 09:11:41;;;;;;;22.58;10.85;;;;;;;-0.45;100.00;99697.34;6110982;19;20010;-72
2024/01/29 09:13:42;;;;;;;13.05;7.68;;;;;;;-0.43;100.00;99711.47;6111140;19;20078;-72
2024/01/29 09:15:42;;;;;;;11.57;6.60;;;;;;;-0.39;100.00;99701.69;6109300;19;20006;-72